sensor_id;sensor_type;location;lat;lon;timestamp;P1;durP1;ratioP1;P2;durP2;ratioP2
9918;SDS011;4998;51.024;13.828;2023-07-29T00:00:45;1.70;;;1.60;;
9918;SDS011;4998;51.024;13.828;2023-07-29T00:03:13;1.63;;;1.53;;
9918;SDS011;4998;51.024;13.828;2023-07-29T00:05:40;1.80;;;1.70;;
9918;SDS011;4998;51.024;13.828;2023-07-29T00:08:07;1.70;;;1.60;;
9918;SDS011;4998;51.024;13.828;2023-07-29T00:10:35;1.73;;;1.60;;
9918;SDS011;4998;51.024;13.828;2023-07-29T00:13:03;1.60;;;1.50;;
9918;SDS011;4998;51.024;13.828;2023-07-29T00:15:31;5.47;;;1.43;;
9918;SDS011;4998;51.024;13.828;2023-07-29T00:17:58;2.00;;;1.80;;
9918;SDS011;4998;51.024;13.828;2023-07-29T00:20:25;1.73;;;1.63;;
9918;SDS011;4998;51.024;13.828;2023-07-29T00:22:52;1.60;;;1.50;;
9918;SDS011;4998;51.024;13.828;2023-07-29T00:25:20;1.53;;;1.43;;
9918;SDS011;4998;51.024;13.828;2023-07-29T00:27:47;1.57;;;1.47;;
9918;SDS011;4998;51.024;13.828;2023-07-29T00:30:14;2.17;;;1.90;;
9918;SDS011;4998;51.024;13.828;2023-07-29T00:32:42;1.83;;;1.57;;
9918;SDS011;4998;51.024;13.828;2023-07-29T00:35:09;1.80;;;1.70;;
9918;SDS011;4998;51.024;13.828;2023-07-29T00:37:36;3.03;;;1.83;;
9918;SDS011;4998;51.024;13.828;2023-07-29T00:40:04;1.60;;;1.50;;
9918;SDS011;4998;51.024;13.828;2023-07-29T00:42:40;1.63;;;1.53;;
9918;SDS011;4998;51.024;13.828;2023-07-29T00:45:08;1.60;;;1.50;;
9918;SDS011;4998;51.024;13.828;2023-07-29T00:47:35;1.63;;;1.53;;
9918;SDS011;4998;51.024;13.828;2023-07-29T00:50:04;2.87;;;1.73;;
9918;SDS011;4998;51.024;13.828;2023-07-29T00:52:32;1.50;;;1.40;;
9918;SDS011;4998;51.024;13.828;2023-07-29T00:54:58;5.00;;;1.37;;
9918;SDS011;4998;51.024;13.828;2023-07-29T00:57:25;1.80;;;1.70;;
9918;SDS011;4998;51.024;13.828;2023-07-29T00:59:55;1.90;;;1.80;;
9918;SDS011;4998;51.024;13.828;2023-07-29T01:02:22;1.70;;;1.60;;
9918;SDS011;4998;51.024;13.828;2023-07-29T01:04:51;1.87;;;1.77;;
9918;SDS011;4998;51.024;13.828;2023-07-29T01:07:21;1.90;;;1.80;;
9918;SDS011;4998;51.024;13.828;2023-07-29T01:09:56;3.23;;;1.73;;
9918;SDS011;4998;51.024;13.828;2023-07-29T01:12:37;1.70;;;1.60;;
9918;SDS011;4998;51.024;13.828;2023-07-29T01:15:14;1.50;;;1.40;;
9918;SDS011;4998;51.024;13.828;2023-07-29T01:17:46;6.40;;;1.40;;
9918;SDS011;4998;51.024;13.828;2023-07-29T01:20:16;2.03;;;1.47;;
9918;SDS011;4998;51.024;13.828;2023-07-29T01:22:47;1.83;;;1.73;;
9918;SDS011;4998;51.024;13.828;2023-07-29T01:25:16;1.60;;;1.50;;
9918;SDS011;4998;51.024;13.828;2023-07-29T01:27:45;2.70;;;1.60;;
9918;SDS011;4998;51.024;13.828;2023-07-29T01:30:13;1.60;;;1.50;;
9918;SDS011;4998;51.024;13.828;2023-07-29T01:32:43;1.80;;;1.70;;
9918;SDS011;4998;51.024;13.828;2023-07-29T01:35:15;1.53;;;1.40;;
9918;SDS011;4998;51.024;13.828;2023-07-29T01:37:49;1.70;;;1.60;;
9918;SDS011;4998;51.024;13.828;2023-07-29T01:40:22;1.63;;;1.53;;
9918;SDS011;4998;51.024;13.828;2023-07-29T01:42:51;1.60;;;1.50;;
9918;SDS011;4998;51.024;13.828;2023-07-29T01:45:19;1.80;;;1.70;;
9918;SDS011;4998;51.024;13.828;2023-07-29T01:47:50;1.23;;;1.23;;
9918;SDS011;4998;51.024;13.828;2023-07-29T01:50:17;2.13;;;1.80;;
9918;SDS011;4998;51.024;13.828;2023-07-29T01:52:45;1.53;;;1.43;;
9918;SDS011;4998;51.024;13.828;2023-07-29T01:55:12;3.50;;;1.87;;
9918;SDS011;4998;51.024;13.828;2023-07-29T01:57:40;1.70;;;1.60;;
9918;SDS011;4998;51.024;13.828;2023-07-29T02:00:10;1.77;;;1.67;;
9918;SDS011;4998;51.024;13.828;2023-07-29T02:02:38;1.97;;;1.73;;
9918;SDS011;4998;51.024;13.828;2023-07-29T02:05:05;1.33;;;1.30;;
9918;SDS011;4998;51.024;13.828;2023-07-29T02:07:32;1.67;;;1.57;;
9918;SDS011;4998;51.024;13.828;2023-07-29T02:09:59;1.57;;;1.47;;
9918;SDS011;4998;51.024;13.828;2023-07-29T02:12:26;1.70;;;1.60;;
9918;SDS011;4998;51.024;13.828;2023-07-29T02:14:55;1.80;;;1.70;;
9918;SDS011;4998;51.024;13.828;2023-07-29T02:17:22;1.43;;;1.33;;
9918;SDS011;4998;51.024;13.828;2023-07-29T02:19:48;1.57;;;1.47;;
9918;SDS011;4998;51.024;13.828;2023-07-29T02:22:16;1.60;;;1.50;;
9918;SDS011;4998;51.024;13.828;2023-07-29T02:24:43;1.80;;;1.70;;
9918;SDS011;4998;51.024;13.828;2023-07-29T02:27:11;1.80;;;1.50;;
9918;SDS011;4998;51.024;13.828;2023-07-29T02:29:38;1.50;;;1.40;;
9918;SDS011;4998;51.024;13.828;2023-07-29T02:32:06;1.67;;;1.57;;
9918;SDS011;4998;51.024;13.828;2023-07-29T02:34:34;1.67;;;1.57;;
9918;SDS011;4998;51.024;13.828;2023-07-29T02:37:01;1.50;;;1.50;;
9918;SDS011;4998;51.024;13.828;2023-07-29T02:39:28;1.70;;;1.60;;
9918;SDS011;4998;51.024;13.828;2023-07-29T02:41:55;1.63;;;1.53;;
9918;SDS011;4998;51.024;13.828;2023-07-29T02:44:23;1.50;;;1.40;;
9918;SDS011;4998;51.024;13.828;2023-07-29T02:46:50;1.63;;;1.53;;
9918;SDS011;4998;51.024;13.828;2023-07-29T02:49:21;1.60;;;1.50;;
9918;SDS011;4998;51.024;13.828;2023-07-29T02:51:48;2.63;;;1.60;;
9918;SDS011;4998;51.024;13.828;2023-07-29T02:54:15;1.80;;;1.70;;
9918;SDS011;4998;51.024;13.828;2023-07-29T02:56:42;1.53;;;1.43;;
9918;SDS011;4998;51.024;13.828;2023-07-29T02:59:09;1.50;;;1.40;;
9918;SDS011;4998;51.024;13.828;2023-07-29T03:01:36;1.70;;;1.60;;
9918;SDS011;4998;51.024;13.828;2023-07-29T03:04:03;1.53;;;1.43;;
9918;SDS011;4998;51.024;13.828;2023-07-29T03:06:31;1.57;;;1.47;;
9918;SDS011;4998;51.024;13.828;2023-07-29T03:08:58;1.70;;;1.60;;
9918;SDS011;4998;51.024;13.828;2023-07-29T03:11:25;1.50;;;1.50;;
9918;SDS011;4998;51.024;13.828;2023-07-29T03:13:52;1.40;;;1.40;;
9918;SDS011;4998;51.024;13.828;2023-07-29T03:16:19;1.67;;;1.57;;
9918;SDS011;4998;51.024;13.828;2023-07-29T03:18:47;1.33;;;1.33;;
9918;SDS011;4998;51.024;13.828;2023-07-29T03:21:15;1.60;;;1.50;;
9918;SDS011;4998;51.024;13.828;2023-07-29T03:23:43;1.50;;;1.40;;
9918;SDS011;4998;51.024;13.828;2023-07-29T03:26:10;1.40;;;1.30;;
9918;SDS011;4998;51.024;13.828;2023-07-29T03:28:39;1.43;;;1.33;;
9918;SDS011;4998;51.024;13.828;2023-07-29T03:31:08;1.43;;;1.33;;
9918;SDS011;4998;51.024;13.828;2023-07-29T03:33:35;1.40;;;1.40;;
9918;SDS011;4998;51.024;13.828;2023-07-29T03:36:02;1.63;;;1.40;;
9918;SDS011;4998;51.024;13.828;2023-07-29T03:38:29;1.57;;;1.47;;
9918;SDS011;4998;51.024;13.828;2023-07-29T03:40:59;1.60;;;1.50;;
9918;SDS011;4998;51.024;13.828;2023-07-29T03:43:27;1.50;;;1.40;;
9918;SDS011;4998;51.024;13.828;2023-07-29T03:45:55;1.33;;;1.23;;
9918;SDS011;4998;51.024;13.828;2023-07-29T03:48:22;1.60;;;1.47;;
9918;SDS011;4998;51.024;13.828;2023-07-29T03:50:49;2.20;;;1.40;;
9918;SDS011;4998;51.024;13.828;2023-07-29T03:53:16;1.40;;;1.30;;
9918;SDS011;4998;51.024;13.828;2023-07-29T03:55:43;1.60;;;1.50;;
9918;SDS011;4998;51.024;13.828;2023-07-29T03:58:11;1.63;;;1.30;;
9918;SDS011;4998;51.024;13.828;2023-07-29T04:00:38;1.70;;;1.60;;
9918;SDS011;4998;51.024;13.828;2023-07-29T04:03:05;1.60;;;1.50;;
9918;SDS011;4998;51.024;13.828;2023-07-29T04:05:32;1.70;;;1.60;;
9918;SDS011;4998;51.024;13.828;2023-07-29T04:07:59;1.67;;;1.43;;
9918;SDS011;4998;51.024;13.828;2023-07-29T04:10:26;1.67;;;1.40;;
9918;SDS011;4998;51.024;13.828;2023-07-29T04:12:56;1.50;;;1.40;;
9918;SDS011;4998;51.024;13.828;2023-07-29T04:15:25;1.50;;;1.40;;
9918;SDS011;4998;51.024;13.828;2023-07-29T04:17:52;1.47;;;1.37;;
9918;SDS011;4998;51.024;13.828;2023-07-29T04:20:19;1.50;;;1.30;;
9918;SDS011;4998;51.024;13.828;2023-07-29T04:22:46;1.10;;;1.10;;
9918;SDS011;4998;51.024;13.828;2023-07-29T04:25:13;1.37;;;1.27;;
9918;SDS011;4998;51.024;13.828;2023-07-29T04:27:40;3.80;;;1.30;;
9918;SDS011;4998;51.024;13.828;2023-07-29T04:30:07;1.40;;;1.30;;
9918;SDS011;4998;51.024;13.828;2023-07-29T04:32:36;2.40;;;1.30;;
9918;SDS011;4998;51.024;13.828;2023-07-29T04:35:03;2.33;;;2.13;;
9918;SDS011;4998;51.024;13.828;2023-07-29T04:37:31;1.30;;;1.30;;
9918;SDS011;4998;51.024;13.828;2023-07-29T04:39:58;5.13;;;1.23;;
9918;SDS011;4998;51.024;13.828;2023-07-29T04:42:25;1.10;;;1.10;;
9918;SDS011;4998;51.024;13.828;2023-07-29T04:44:52;1.67;;;1.30;;
9918;SDS011;4998;51.024;13.828;2023-07-29T04:47:19;1.50;;;1.40;;
9918;SDS011;4998;51.024;13.828;2023-07-29T04:49:47;2.50;;;1.43;;
9918;SDS011;4998;51.024;13.828;2023-07-29T04:52:14;1.30;;;1.30;;
9918;SDS011;4998;51.024;13.828;2023-07-29T04:54:41;1.40;;;1.30;;
9918;SDS011;4998;51.024;13.828;2023-07-29T04:57:08;1.40;;;1.30;;
9918;SDS011;4998;51.024;13.828;2023-07-29T04:59:35;1.10;;;1.10;;
9918;SDS011;4998;51.024;13.828;2023-07-29T05:02:02;1.60;;;1.50;;
9918;SDS011;4998;51.024;13.828;2023-07-29T05:04:29;1.40;;;1.30;;
9918;SDS011;4998;51.024;13.828;2023-07-29T05:06:58;1.93;;;1.13;;
9918;SDS011;4998;51.024;13.828;2023-07-29T05:09:25;1.10;;;1.10;;
9918;SDS011;4998;51.024;13.828;2023-07-29T05:11:52;1.30;;;1.30;;
9918;SDS011;4998;51.024;13.828;2023-07-29T05:14:19;1.47;;;1.37;;
9918;SDS011;4998;51.024;13.828;2023-07-29T05:16:46;1.80;;;1.23;;
9918;SDS011;4998;51.024;13.828;2023-07-29T05:19:13;1.33;;;1.20;;
9918;SDS011;4998;51.024;13.828;2023-07-29T05:21:40;1.50;;;1.40;;
9918;SDS011;4998;51.024;13.828;2023-07-29T05:24:08;1.30;;;1.20;;
9918;SDS011;4998;51.024;13.828;2023-07-29T05:26:35;2.10;;;1.30;;
9918;SDS011;4998;51.024;13.828;2023-07-29T05:29:02;1.27;;;1.27;;
9918;SDS011;4998;51.024;13.828;2023-07-29T05:31:30;1.40;;;1.20;;
9918;SDS011;4998;51.024;13.828;2023-07-29T05:33:57;1.03;;;1.03;;
9918;SDS011;4998;51.024;13.828;2023-07-29T05:36:24;1.10;;;1.10;;
9918;SDS011;4998;51.024;13.828;2023-07-29T05:38:51;1.40;;;1.30;;
9918;SDS011;4998;51.024;13.828;2023-07-29T05:41:20;1.27;;;1.00;;
9918;SDS011;4998;51.024;13.828;2023-07-29T05:43:47;2.10;;;1.33;;
9918;SDS011;4998;51.024;13.828;2023-07-29T05:46:14;1.10;;;1.10;;
9918;SDS011;4998;51.024;13.828;2023-07-29T05:48:41;1.30;;;1.20;;
9918;SDS011;4998;51.024;13.828;2023-07-29T05:51:08;1.30;;;1.20;;
9918;SDS011;4998;51.024;13.828;2023-07-29T05:53:35;1.23;;;1.10;;
9918;SDS011;4998;51.024;13.828;2023-07-29T05:56:02;1.10;;;1.10;;
9918;SDS011;4998;51.024;13.828;2023-07-29T05:58:31;1.23;;;1.13;;
9918;SDS011;4998;51.024;13.828;2023-07-29T06:00:58;3.03;;;1.20;;
9918;SDS011;4998;51.024;13.828;2023-07-29T06:03:25;1.00;;;1.00;;
9918;SDS011;4998;51.024;13.828;2023-07-29T06:05:52;1.20;;;1.20;;
9918;SDS011;4998;51.024;13.828;2023-07-29T06:08:20;1.00;;;1.00;;
9918;SDS011;4998;51.024;13.828;2023-07-29T06:10:47;1.20;;;1.20;;
9918;SDS011;4998;51.024;13.828;2023-07-29T06:13:14;1.53;;;1.20;;
9918;SDS011;4998;51.024;13.828;2023-07-29T06:15:42;1.20;;;1.20;;
9918;SDS011;4998;51.024;13.828;2023-07-29T06:18:09;1.00;;;0.90;;
9918;SDS011;4998;51.024;13.828;2023-07-29T06:20:36;1.23;;;1.17;;
9918;SDS011;4998;51.024;13.828;2023-07-29T06:23:03;1.90;;;1.00;;
9918;SDS011;4998;51.024;13.828;2023-07-29T06:25:30;1.00;;;0.90;;
9918;SDS011;4998;51.024;13.828;2023-07-29T06:27:57;1.07;;;1.07;;
9918;SDS011;4998;51.024;13.828;2023-07-29T06:30:24;1.03;;;1.03;;
9918;SDS011;4998;51.024;13.828;2023-07-29T06:32:53;1.30;;;1.20;;
9918;SDS011;4998;51.024;13.828;2023-07-29T06:35:20;1.00;;;1.00;;
9918;SDS011;4998;51.024;13.828;2023-07-29T06:37:47;1.13;;;1.03;;
9918;SDS011;4998;51.024;13.828;2023-07-29T06:40:14;1.67;;;1.20;;
9918;SDS011;4998;51.024;13.828;2023-07-29T06:42:40;1.20;;;1.20;;
9918;SDS011;4998;51.024;13.828;2023-07-29T06:45:08;1.47;;;1.37;;
9918;SDS011;4998;51.024;13.828;2023-07-29T06:47:35;1.40;;;1.30;;
9918;SDS011;4998;51.024;13.828;2023-07-29T06:50:04;1.70;;;1.60;;
9918;SDS011;4998;51.024;13.828;2023-07-29T06:52:31;1.47;;;1.37;;
9918;SDS011;4998;51.024;13.828;2023-07-29T06:54:58;1.00;;;1.00;;
9918;SDS011;4998;51.024;13.828;2023-07-29T06:57:25;1.13;;;1.10;;
9918;SDS011;4998;51.024;13.828;2023-07-29T06:59:52;0.90;;;0.90;;
9918;SDS011;4998;51.024;13.828;2023-07-29T07:02:19;1.00;;;1.00;;
9918;SDS011;4998;51.024;13.828;2023-07-29T07:04:46;1.17;;;1.10;;
9918;SDS011;4998;51.024;13.828;2023-07-29T07:07:15;1.00;;;1.00;;
9918;SDS011;4998;51.024;13.828;2023-07-29T07:09:42;1.13;;;1.10;;
9918;SDS011;4998;51.024;13.828;2023-07-29T07:12:09;1.00;;;1.00;;
9918;SDS011;4998;51.024;13.828;2023-07-29T07:14:36;1.00;;;1.00;;
9918;SDS011;4998;51.024;13.828;2023-07-29T07:17:04;1.10;;;1.10;;
9918;SDS011;4998;51.024;13.828;2023-07-29T07:19:31;1.40;;;1.30;;
9918;SDS011;4998;51.024;13.828;2023-07-29T07:21:58;1.40;;;1.30;;
9918;SDS011;4998;51.024;13.828;2023-07-29T07:24:26;1.13;;;1.13;;
9918;SDS011;4998;51.024;13.828;2023-07-29T07:26:53;1.00;;;1.00;;
9918;SDS011;4998;51.024;13.828;2023-07-29T07:29:20;1.40;;;1.30;;
9918;SDS011;4998;51.024;13.828;2023-07-29T07:31:49;1.13;;;1.13;;
9918;SDS011;4998;51.024;13.828;2023-07-29T07:34:17;3.73;;;1.20;;
9918;SDS011;4998;51.024;13.828;2023-07-29T07:36:45;1.33;;;1.23;;
9918;SDS011;4998;51.024;13.828;2023-07-29T07:39:12;1.17;;;1.00;;
9918;SDS011;4998;51.024;13.828;2023-07-29T07:41:41;0.90;;;0.90;;
9918;SDS011;4998;51.024;13.828;2023-07-29T07:44:08;1.20;;;1.10;;
9918;SDS011;4998;51.024;13.828;2023-07-29T07:46:36;1.30;;;1.30;;
9918;SDS011;4998;51.024;13.828;2023-07-29T07:49:03;1.00;;;1.00;;
9918;SDS011;4998;51.024;13.828;2023-07-29T07:51:30;0.90;;;0.90;;
9918;SDS011;4998;51.024;13.828;2023-07-29T07:53:57;1.07;;;1.07;;
9918;SDS011;4998;51.024;13.828;2023-07-29T07:56:24;1.20;;;1.10;;
9918;SDS011;4998;51.024;13.828;2023-07-29T07:58:52;1.00;;;1.00;;
9918;SDS011;4998;51.024;13.828;2023-07-29T08:01:19;1.00;;;1.00;;
9918;SDS011;4998;51.024;13.828;2023-07-29T08:03:46;1.20;;;1.07;;
9918;SDS011;4998;51.024;13.828;2023-07-29T08:06:13;1.00;;;1.00;;
9918;SDS011;4998;51.024;13.828;2023-07-29T08:08:40;1.20;;;1.10;;
9918;SDS011;4998;51.024;13.828;2023-07-29T08:11:07;1.10;;;1.00;;
9918;SDS011;4998;51.024;13.828;2023-07-29T08:13:34;1.13;;;1.03;;
9918;SDS011;4998;51.024;13.828;2023-07-29T08:16:03;0.90;;;0.90;;
9918;SDS011;4998;51.024;13.828;2023-07-29T08:18:30;1.10;;;1.10;;
9918;SDS011;4998;51.024;13.828;2023-07-29T08:20:57;2.97;;;1.20;;
9918;SDS011;4998;51.024;13.828;2023-07-29T08:23:28;1.03;;;1.03;;
9918;SDS011;4998;51.024;13.828;2023-07-29T08:25:56;0.90;;;0.90;;
9918;SDS011;4998;51.024;13.828;2023-07-29T08:28:27;1.47;;;1.10;;
9918;SDS011;4998;51.024;13.828;2023-07-29T08:30:54;1.10;;;1.00;;
9918;SDS011;4998;51.024;13.828;2023-07-29T08:33:23;1.23;;;1.00;;
9918;SDS011;4998;51.024;13.828;2023-07-29T08:35:50;0.87;;;0.87;;
9918;SDS011;4998;51.024;13.828;2023-07-29T08:38:17;0.80;;;0.80;;
9918;SDS011;4998;51.024;13.828;2023-07-29T08:40:45;1.03;;;1.03;;
9918;SDS011;4998;51.024;13.828;2023-07-29T08:43:16;1.00;;;1.00;;
9918;SDS011;4998;51.024;13.828;2023-07-29T08:45:46;0.90;;;0.90;;
9918;SDS011;4998;51.024;13.828;2023-07-29T08:48:13;0.80;;;0.80;;
9918;SDS011;4998;51.024;13.828;2023-07-29T08:50:47;0.97;;;0.90;;
9918;SDS011;4998;51.024;13.828;2023-07-29T08:53:15;0.80;;;0.80;;
9918;SDS011;4998;51.024;13.828;2023-07-29T08:55:42;0.80;;;0.80;;
9918;SDS011;4998;51.024;13.828;2023-07-29T08:58:09;0.80;;;0.80;;
9918;SDS011;4998;51.024;13.828;2023-07-29T09:00:37;0.80;;;0.80;;
9918;SDS011;4998;51.024;13.828;2023-07-29T09:03:05;0.80;;;0.80;;
9918;SDS011;4998;51.024;13.828;2023-07-29T09:05:33;0.80;;;0.80;;
9918;SDS011;4998;51.024;13.828;2023-07-29T09:08:01;1.00;;;0.90;;
9918;SDS011;4998;51.024;13.828;2023-07-29T09:10:29;0.80;;;0.80;;
9918;SDS011;4998;51.024;13.828;2023-07-29T09:12:56;1.00;;;1.00;;
9918;SDS011;4998;51.024;13.828;2023-07-29T09:15:27;0.90;;;0.90;;
9918;SDS011;4998;51.024;13.828;2023-07-29T09:17:55;1.00;;;1.00;;
9918;SDS011;4998;51.024;13.828;2023-07-29T09:20:24;0.80;;;0.80;;
9918;SDS011;4998;51.024;13.828;2023-07-29T09:22:52;0.90;;;0.90;;
9918;SDS011;4998;51.024;13.828;2023-07-29T09:25:23;1.20;;;1.10;;
9918;SDS011;4998;51.024;13.828;2023-07-29T09:27:51;1.00;;;1.00;;
9918;SDS011;4998;51.024;13.828;2023-07-29T09:30:18;1.10;;;1.10;;
9918;SDS011;4998;51.024;13.828;2023-07-29T09:32:45;1.07;;;1.07;;
9918;SDS011;4998;51.024;13.828;2023-07-29T09:35:12;2.20;;;1.10;;
9918;SDS011;4998;51.024;13.828;2023-07-29T09:37:39;1.00;;;1.00;;
9918;SDS011;4998;51.024;13.828;2023-07-29T09:40:07;1.07;;;0.93;;
9918;SDS011;4998;51.024;13.828;2023-07-29T09:42:48;1.30;;;1.17;;
9918;SDS011;4998;51.024;13.828;2023-07-29T09:45:19;1.10;;;1.00;;
9918;SDS011;4998;51.024;13.828;2023-07-29T09:47:47;1.00;;;1.00;;
9918;SDS011;4998;51.024;13.828;2023-07-29T09:50:15;0.90;;;0.90;;
9918;SDS011;4998;51.024;13.828;2023-07-29T09:52:43;1.00;;;1.00;;
9918;SDS011;4998;51.024;13.828;2023-07-29T09:55:11;1.20;;;0.80;;
9918;SDS011;4998;51.024;13.828;2023-07-29T09:57:39;2.73;;;1.20;;
9918;SDS011;4998;51.024;13.828;2023-07-29T10:00:10;1.13;;;1.03;;
9918;SDS011;4998;51.024;13.828;2023-07-29T10:02:38;1.10;;;1.10;;
9918;SDS011;4998;51.024;13.828;2023-07-29T10:05:06;1.00;;;1.00;;
9918;SDS011;4998;51.024;13.828;2023-07-29T10:07:34;1.37;;;1.20;;
9918;SDS011;4998;51.024;13.828;2023-07-29T10:10:03;1.00;;;1.00;;
9918;SDS011;4998;51.024;13.828;2023-07-29T10:12:32;1.13;;;1.00;;
9918;SDS011;4998;51.024;13.828;2023-07-29T10:14:59;1.10;;;1.10;;
9918;SDS011;4998;51.024;13.828;2023-07-29T10:17:29;1.23;;;1.20;;
9918;SDS011;4998;51.024;13.828;2023-07-29T10:19:57;0.90;;;0.90;;
9918;SDS011;4998;51.024;13.828;2023-07-29T10:22:25;1.10;;;1.00;;
9918;SDS011;4998;51.024;13.828;2023-07-29T10:24:56;1.37;;;1.00;;
9918;SDS011;4998;51.024;13.828;2023-07-29T10:27:29;0.83;;;0.83;;
9918;SDS011;4998;51.024;13.828;2023-07-29T10:30:01;0.90;;;0.90;;
9918;SDS011;4998;51.024;13.828;2023-07-29T10:32:30;3.00;;;1.20;;
9918;SDS011;4998;51.024;13.828;2023-07-29T10:34:58;1.50;;;1.00;;
9918;SDS011;4998;51.024;13.828;2023-07-29T10:37:25;1.00;;;1.00;;
9918;SDS011;4998;51.024;13.828;2023-07-29T10:39:53;1.70;;;1.60;;
9918;SDS011;4998;51.024;13.828;2023-07-29T10:42:21;1.30;;;1.20;;
9918;SDS011;4998;51.024;13.828;2023-07-29T10:44:49;1.10;;;1.10;;
9918;SDS011;4998;51.024;13.828;2023-07-29T10:47:17;1.00;;;1.00;;
9918;SDS011;4998;51.024;13.828;2023-07-29T10:49:49;27.40;;;24.70;;
9918;SDS011;4998;51.024;13.828;2023-07-29T10:52:27;34.53;;;31.03;;
9918;SDS011;4998;51.024;13.828;2023-07-29T10:54:56;11.40;;;10.40;;
9918;SDS011;4998;51.024;13.828;2023-07-29T10:57:34;4.93;;;4.53;;
9918;SDS011;4998;51.024;13.828;2023-07-29T11:00:02;2.70;;;2.50;;
9918;SDS011;4998;51.024;13.828;2023-07-29T11:02:32;1.73;;;1.63;;
9918;SDS011;4998;51.024;13.828;2023-07-29T11:05:05;1.70;;;1.60;;
9918;SDS011;4998;51.024;13.828;2023-07-29T11:07:42;1.70;;;1.60;;
9918;SDS011;4998;51.024;13.828;2023-07-29T11:10:11;1.40;;;1.30;;
9918;SDS011;4998;51.024;13.828;2023-07-29T11:12:39;1.60;;;1.50;;
9918;SDS011;4998;51.024;13.828;2023-07-29T11:15:23;2.20;;;1.00;;
9918;SDS011;4998;51.024;13.828;2023-07-29T11:17:51;1.23;;;1.13;;
9918;SDS011;4998;51.024;13.828;2023-07-29T11:20:21;1.03;;;1.03;;
9918;SDS011;4998;51.024;13.828;2023-07-29T11:22:52;1.10;;;1.10;;
9918;SDS011;4998;51.024;13.828;2023-07-29T11:25:21;0.90;;;0.90;;
9918;SDS011;4998;51.024;13.828;2023-07-29T11:27:51;3.23;;;1.17;;
9918;SDS011;4998;51.024;13.828;2023-07-29T11:30:20;1.13;;;1.00;;
9918;SDS011;4998;51.024;13.828;2023-07-29T11:32:47;1.20;;;1.10;;
9918;SDS011;4998;51.024;13.828;2023-07-29T11:35:15;23.13;;;20.73;;
9918;SDS011;4998;51.024;13.828;2023-07-29T11:37:45;11.43;;;10.23;;
9918;SDS011;4998;51.024;13.828;2023-07-29T11:40:14;7.50;;;5.77;;
9918;SDS011;4998;51.024;13.828;2023-07-29T11:42:41;3.50;;;3.23;;
9918;SDS011;4998;51.024;13.828;2023-07-29T11:45:08;1.87;;;1.77;;
9918;SDS011;4998;51.024;13.828;2023-07-29T11:47:36;1.40;;;1.30;;
9918;SDS011;4998;51.024;13.828;2023-07-29T11:50:03;1.20;;;1.10;;
9918;SDS011;4998;51.024;13.828;2023-07-29T11:52:31;1.10;;;1.10;;
9918;SDS011;4998;51.024;13.828;2023-07-29T11:55:01;0.90;;;0.90;;
9918;SDS011;4998;51.024;13.828;2023-07-29T11:57:28;0.90;;;0.90;;
9918;SDS011;4998;51.024;13.828;2023-07-29T11:59:56;0.93;;;0.93;;
9918;SDS011;4998;51.024;13.828;2023-07-29T12:02:23;1.00;;;1.00;;
9918;SDS011;4998;51.024;13.828;2023-07-29T12:04:51;1.13;;;1.13;;
9918;SDS011;4998;51.024;13.828;2023-07-29T12:07:19;2.83;;;1.20;;
9918;SDS011;4998;51.024;13.828;2023-07-29T12:09:46;12.53;;;10.50;;
9918;SDS011;4998;51.024;13.828;2023-07-29T12:12:15;26.63;;;23.80;;
9918;SDS011;4998;51.024;13.828;2023-07-29T12:14:43;10.63;;;9.63;;
9918;SDS011;4998;51.024;13.828;2023-07-29T12:17:11;4.43;;;4.03;;
9918;SDS011;4998;51.024;13.828;2023-07-29T12:19:39;2.20;;;2.10;;
9918;SDS011;4998;51.024;13.828;2023-07-29T12:22:08;1.80;;;1.70;;
9918;SDS011;4998;51.024;13.828;2023-07-29T12:24:36;1.90;;;1.30;;
9918;SDS011;4998;51.024;13.828;2023-07-29T12:27:05;1.30;;;1.20;;
9918;SDS011;4998;51.024;13.828;2023-07-29T12:29:41;1.23;;;1.23;;
9918;SDS011;4998;51.024;13.828;2023-07-29T12:32:08;1.10;;;1.00;;
9918;SDS011;4998;51.024;13.828;2023-07-29T12:34:36;1.13;;;1.03;;
9918;SDS011;4998;51.024;13.828;2023-07-29T12:37:05;30.03;;;26.70;;
9918;SDS011;4998;51.024;13.828;2023-07-29T12:39:33;25.47;;;22.63;;
9918;SDS011;4998;51.024;13.828;2023-07-29T12:42:02;33.43;;;29.97;;
9918;SDS011;4998;51.024;13.828;2023-07-29T12:44:31;9.13;;;8.33;;
9918;SDS011;4998;51.024;13.828;2023-07-29T12:47:02;3.70;;;3.40;;
9918;SDS011;4998;51.024;13.828;2023-07-29T12:49:30;2.17;;;2.07;;
9918;SDS011;4998;51.024;13.828;2023-07-29T12:51:58;1.50;;;1.40;;
9918;SDS011;4998;51.024;13.828;2023-07-29T12:54:25;2.50;;;1.20;;
9918;SDS011;4998;51.024;13.828;2023-07-29T12:56:52;1.07;;;1.07;;
9918;SDS011;4998;51.024;13.828;2023-07-29T12:59:19;1.30;;;1.20;;
9918;SDS011;4998;51.024;13.828;2023-07-29T13:01:46;1.10;;;1.10;;
9918;SDS011;4998;51.024;13.828;2023-07-29T13:04:15;2.13;;;1.97;;
9918;SDS011;4998;51.024;13.828;2023-07-29T13:06:42;13.10;;;11.37;;
9918;SDS011;4998;51.024;13.828;2023-07-29T13:09:09;16.43;;;14.47;;
9918;SDS011;4998;51.024;13.828;2023-07-29T13:11:36;7.33;;;6.63;;
9918;SDS011;4998;51.024;13.828;2023-07-29T13:14:03;3.50;;;3.20;;
9918;SDS011;4998;51.024;13.828;2023-07-29T13:16:30;2.13;;;2.03;;
9918;SDS011;4998;51.024;13.828;2023-07-29T13:18:57;1.63;;;1.50;;
9918;SDS011;4998;51.024;13.828;2023-07-29T13:21:26;1.47;;;1.37;;
9918;SDS011;4998;51.024;13.828;2023-07-29T13:23:53;3.07;;;1.40;;
9918;SDS011;4998;51.024;13.828;2023-07-29T13:26:20;1.17;;;1.07;;
9918;SDS011;4998;51.024;13.828;2023-07-29T13:28:47;0.97;;;0.97;;
9918;SDS011;4998;51.024;13.828;2023-07-29T13:31:14;7.90;;;7.17;;
9918;SDS011;4998;51.024;13.828;2023-07-29T13:33:41;5.83;;;3.67;;
9918;SDS011;4998;51.024;13.828;2023-07-29T13:36:08;8.83;;;8.03;;
9918;SDS011;4998;51.024;13.828;2023-07-29T13:38:36;14.70;;;10.07;;
9918;SDS011;4998;51.024;13.828;2023-07-29T13:41:03;16.13;;;10.57;;
9918;SDS011;4998;51.024;13.828;2023-07-29T13:43:30;9.53;;;5.57;;
9918;SDS011;4998;51.024;13.828;2023-07-29T13:45:57;2.27;;;2.07;;
9918;SDS011;4998;51.024;13.828;2023-07-29T13:48:24;1.40;;;1.30;;
9918;SDS011;4998;51.024;13.828;2023-07-29T13:50:51;1.10;;;1.10;;
9918;SDS011;4998;51.024;13.828;2023-07-29T13:53:18;1.30;;;0.90;;
9918;SDS011;4998;51.024;13.828;2023-07-29T13:55:47;0.80;;;0.80;;
9918;SDS011;4998;51.024;13.828;2023-07-29T13:58:14;1.23;;;1.17;;
9918;SDS011;4998;51.024;13.828;2023-07-29T14:00:41;1.17;;;1.17;;
9918;SDS011;4998;51.024;13.828;2023-07-29T14:03:08;1.17;;;1.10;;
9918;SDS011;4998;51.024;13.828;2023-07-29T14:05:35;1.10;;;1.03;;
9918;SDS011;4998;51.024;13.828;2023-07-29T14:08:02;1.10;;;1.10;;
9918;SDS011;4998;51.024;13.828;2023-07-29T14:10:29;1.40;;;1.30;;
9918;SDS011;4998;51.024;13.828;2023-07-29T14:12:57;1.03;;;1.03;;
9918;SDS011;4998;51.024;13.828;2023-07-29T14:15:24;1.30;;;1.20;;
9918;SDS011;4998;51.024;13.828;2023-07-29T14:17:51;2.07;;;1.50;;
9918;SDS011;4998;51.024;13.828;2023-07-29T14:20:18;1.00;;;1.00;;
9918;SDS011;4998;51.024;13.828;2023-07-29T14:22:45;1.00;;;1.00;;
9918;SDS011;4998;51.024;13.828;2023-07-29T14:25:13;0.97;;;0.97;;
9918;SDS011;4998;51.024;13.828;2023-07-29T14:27:41;1.17;;;1.00;;
9918;SDS011;4998;51.024;13.828;2023-07-29T14:30:10;1.10;;;1.10;;
9918;SDS011;4998;51.024;13.828;2023-07-29T14:32:37;1.30;;;1.30;;
9918;SDS011;4998;51.024;13.828;2023-07-29T14:35:04;1.20;;;1.10;;
9918;SDS011;4998;51.024;13.828;2023-07-29T14:37:33;1.23;;;1.07;;
9918;SDS011;4998;51.024;13.828;2023-07-29T14:40:00;1.60;;;1.20;;
9918;SDS011;4998;51.024;13.828;2023-07-29T14:42:28;1.00;;;1.00;;
9918;SDS011;4998;51.024;13.828;2023-07-29T14:44:55;0.90;;;0.90;;
9918;SDS011;4998;51.024;13.828;2023-07-29T14:47:23;1.10;;;1.10;;
9918;SDS011;4998;51.024;13.828;2023-07-29T14:49:50;1.00;;;1.00;;
9918;SDS011;4998;51.024;13.828;2023-07-29T14:52:17;0.90;;;0.90;;
9918;SDS011;4998;51.024;13.828;2023-07-29T14:54:44;1.00;;;1.00;;
9918;SDS011;4998;51.024;13.828;2023-07-29T14:57:11;0.90;;;0.90;;
9918;SDS011;4998;51.024;13.828;2023-07-29T14:59:38;1.30;;;1.20;;
9918;SDS011;4998;51.024;13.828;2023-07-29T15:02:05;1.03;;;0.97;;
9918;SDS011;4998;51.024;13.828;2023-07-29T15:04:34;0.80;;;0.80;;